Time;durP1;ratioP1;P1;durP2;ratioP2;P2;SDS_P1;SDS_P2;PMS_P1;PMS_P2;Temp;Humidity;BMP_temperature;BMP_pressure;BME280_temperature;BME280_humidity;BME280_pressure;Samples;Min_cycle;Max_cycle;Signal;HPM_P1;HPM_P2
2022/10/16 00:01:20;;;;;;;8.57;5.07;;;;;;;16.71;100.00;98029.91;5214212;22;21069;-93
2022/10/16 00:03:24;;;;;;;11.00;4.60;;;;;;;16.69;100.00;98044.22;5214551;22;21180;-94
2022/10/16 00:05:33;;;;;;;6.50;4.70;;;;;;;16.69;100.00;98049.47;5241513;22;20619;-92
2022/10/16 00:07:36;;;;;;;8.80;5.20;;;;;;;16.67;100.00;98054.91;5188759;22;20632;-92
2022/10/16 00:09:39;;;;;;;6.10;5.47;;;;;;;16.69;100.00;98058.22;5214563;22;21049;-91
2022/10/16 00:11:42;;;;;;;7.60;5.53;;;;;;;16.69;100.00;98060.84;5214308;22;20619;-92
2022/10/16 00:13:49;;;;;;;11.40;5.80;;;;;;;16.71;100.00;98058.88;5215123;22;20621;-92
2022/10/16 00:15:56;;;;;;;5.67;5.03;;;;;;;16.72;100.00;98057.09;5213986;22;21094;-91
2022/10/16 00:17:59;;;;;;;12.27;5.87;;;;;;;16.72;100.00;98055.28;5215061;22;20581;-92
2022/10/16 00:20:04;;;;;;;8.87;5.77;;;;;;;16.72;100.00;98050.03;5214022;22;21186;-92
2022/10/16 00:22:26;;;;;;;6.97;6.03;;;;;;;16.73;100.00;98049.06;5218914;22;20581;-92
2022/10/16 00:24:29;;;;;;;9.43;6.43;;;;;;;16.73;100.00;98049.06;5214509;22;20584;-91
2022/10/16 00:26:34;;;;;;;8.30;5.37;;;;;;;16.74;100.00;98047.25;5214398;22;20609;-92
2022/10/16 00:28:38;;;;;;;8.57;5.57;;;;;;;16.75;100.00;98047.09;5214243;22;21119;-92
2022/10/16 00:30:41;;;;;;;7.17;5.67;;;;;;;16.75;100.00;98048.91;5214365;22;21163;-92
2022/10/16 00:32:44;;;;;;;10.00;5.30;;;;;;;16.75;100.00;98048.91;5215307;22;21105;-91
2022/10/16 00:34:47;;;;;;;6.10;5.43;;;;;;;16.75;100.00;98052.38;5212735;22;21073;-92
2022/10/16 00:36:54;;;;;;;8.40;5.60;;;;;;;16.75;100.00;98044.47;5213212;22;20578;-92
2022/10/16 00:39:00;;;;;;;6.73;6.00;;;;;;;16.74;100.00;98037.53;5187103;22;20601;-93
2022/10/16 00:41:12;;;;;;;6.77;5.70;;;;;;;16.76;100.00;98032.94;5213526;22;20585;-92
2022/10/16 00:43:34;;;;;;;8.50;5.70;;;;;;;16.76;100.00;98032.94;5213730;22;20570;-92
2022/10/16 00:45:37;;;;;;;6.93;5.87;;;;;;;16.77;100.00;98036.41;5211746;22;20659;-92
2022/10/16 00:47:41;;;;;;;10.33;5.57;;;;;;;16.75;100.00;98044.47;5212888;22;21114;-93
2022/10/16 00:49:45;;;;;;;6.50;5.07;;;;;;;16.75;100.00;98043.66;5240052;22;20617;-92
2022/10/16 00:51:50;;;;;;;7.13;5.90;;;;;;;16.77;100.00;98049.59;5213092;22;20573;-91
2022/10/16 00:53:56;;;;;;;11.13;6.10;;;;;;;16.76;100.00;98054.00;5214215;22;21307;-91
2022/10/16 00:55:59;;;;;;;10.03;6.70;;;;;;;16.77;100.00;98058.31;5213067;22;20627;-92
2022/10/16 00:58:02;;;;;;;11.47;6.60;;;;;;;16.76;100.00;98067.19;5213853;22;20589;-91
2022/10/16 01:00:08;;;;;;;7.97;7.17;;;;;;;16.74;100.00;98066.50;5213389;22;20577;-91
2022/10/16 01:02:14;;;;;;;10.03;7.27;;;;;;;16.75;100.00;98064.72;5240546;22;20996;-91
2022/10/16 01:04:17;;;;;;;9.20;7.20;;;;;;;16.73;100.00;98067.50;5214038;22;20629;-91
2022/10/16 01:06:25;;;;;;;6.60;5.97;;;;;;;16.73;100.00;98069.28;5213776;22;20625;-92
2022/10/16 01:08:34;;;;;;;11.43;5.77;;;;;;;16.69;100.00;98063.47;5213912;22;20585;-90
2022/10/16 01:10:41;;;;;;;8.40;5.67;;;;;;;16.69;100.00;98070.56;5214277;22;20588;-91
2022/10/16 01:12:48;;;;;;;6.90;5.80;;;;;;;16.69;100.00;98073.19;5213805;22;20583;-92
2022/10/16 01:14:55;;;;;;;6.83;6.20;;;;;;;16.68;100.00;98063.63;5212771;22;20954;-92
2022/10/16 01:17:02;;;;;;;7.80;6.27;;;;;;;16.65;100.00;98064.72;5212021;22;20574;-92
2022/10/16 01:19:10;;;;;;;8.10;6.40;;;;;;;16.65;100.00;98066.53;5213210;22;21117;-91
2022/10/16 01:21:17;;;;;;;10.60;6.20;;;;;;;16.63;100.00;98076.41;5186148;22;20613;-91
2022/10/16 01:23:29;;;;;;;8.67;6.30;;;;;;;16.62;100.00;98080.00;5214541;22;21122;-92
2022/10/16 01:25:53;;;;;;;6.73;5.47;;;;;;;16.62;100.00;98085.25;5186624;22;20594;-92
2022/10/16 01:27:58;;;;;;;6.67;5.53;;;;;;;16.62;100.00;98078.19;5240215;22;20576;-91
2022/10/16 01:30:07;;;;;;;12.33;5.70;;;;;;;16.64;100.00;98070.13;5213064;22;20938;-92
2022/10/16 01:32:16;;;;;;;6.97;5.70;;;;;;;16.65;100.00;98064.72;5214206;22;21139;-91
2022/10/16 01:34:22;;;;;;;9.03;5.87;;;;;;;16.66;100.00;98061.13;5214164;22;20585;-93
2022/10/16 01:36:30;;;;;;;7.43;5.73;;;;;;;16.66;100.00;98065.56;5212753;22;20580;-92
2022/10/16 01:38:35;;;;;;;8.23;5.40;;;;;;;16.67;100.00;98061.94;5240039;22;20669;-92
2022/10/16 01:40:40;;;;;;;7.10;5.47;;;;;;;16.66;100.00;98053.22;5212880;22;20684;-92
2022/10/16 01:42:47;;;;;;;5.83;5.23;;;;;;;16.66;100.00;98052.41;5213349;22;20581;-92
2022/10/16 01:44:53;;;;;;;9.57;5.73;;;;;;;16.66;100.00;98055.84;5211322;22;20582;-91
2022/10/16 01:46:57;;;;;;;5.33;4.77;;;;;;;16.66;100.00;98055.84;5213119;22;20706;-92
2022/10/16 01:49:01;;;;;;;9.17;6.03;;;;;;;16.64;100.00;98057.81;5212836;22;20696;-91
2022/10/16 01:51:08;;;;;;;7.63;5.07;;;;;;;16.64;100.00;98064.88;5213249;22;20601;-92
2022/10/16 01:53:13;;;;;;;6.90;5.40;;;;;;;16.63;100.00;98061.41;5238124;22;20589;-92
2022/10/16 01:55:20;;;;;;;6.00;5.30;;;;;;;16.63;100.00;98068.50;5239534;22;20703;-91
2022/10/16 01:57:26;;;;;;;11.17;5.30;;;;;;;16.61;100.00;98071.25;5188654;22;20571;-92
2022/10/16 01:59:31;;;;;;;6.57;4.90;;;;;;;16.61;100.00;98067.78;5214969;22;20680;-91
2022/10/16 02:01:38;;;;;;;7.63;5.30;;;;;;;16.61;100.00;98068.63;5240440;22;20584;-92
2022/10/16 02:03:44;;;;;;;7.53;5.47;;;;;;;16.62;100.00;98069.44;5215642;22;20707;-92
2022/10/16 02:05:49;;;;;;;5.80;5.20;;;;;;;16.64;100.00;98068.34;5214714;22;21125;-91
2022/10/16 02:07:52;;;;;;;6.53;4.90;;;;;;;16.65;100.00;98062.09;5240652;22;20632;-90
2022/10/16 02:09:56;;;;;;;8.27;4.87;;;;;;;16.65;100.00;98063.91;5214654;22;20667;-91
2022/10/16 02:12:02;;;;;;;9.43;5.17;;;;;;;16.65;100.00;98058.63;5186934;22;21159;-91
2022/10/16 02:14:07;;;;;;;9.57;5.57;;;;;;;16.61;100.00;98057.25;5216262;22;20580;-92
2022/10/16 02:16:13;;;;;;;8.43;6.30;;;;;;;16.56;100.00;98044.50;5188020;22;20680;-92
2022/10/16 02:18:18;;;;;;;7.03;5.20;;;;;;;16.54;100.00;98049.09;5214395;22;20591;-92
2022/10/16 02:20:26;;;;;;;10.93;4.90;;;;;;;16.53;100.00;98052.69;5215207;22;20573;-92
2022/10/16 02:22:33;;;;;;;6.17;4.93;;;;;;;16.55;100.00;98048.13;5215197;22;20585;-92
2022/10/16 02:24:40;;;;;;;11.60;4.80;;;;;;;16.55;100.00;98053.41;5214996;22;20630;-91
2022/10/16 02:26:48;;;;;;;6.90;4.73;;;;;;;16.54;100.00;98054.34;5213723;22;20629;-92
2022/10/16 02:28:54;;;;;;;6.37;4.50;;;;;;;16.55;100.00;98069.19;5214418;22;20599;-92
2022/10/16 02:31:00;;;;;;;6.33;4.80;;;;;;;16.56;100.00;98067.38;5214255;22;20574;-91
2022/10/16 02:33:05;;;;;;;21.57;5.47;;;;;;;16.56;100.00;98064.75;5214505;22;20583;-91
2022/10/16 02:35:10;;;;;;;6.97;4.80;;;;;;;16.55;100.00;98056.03;5189015;22;20578;-92
2022/10/16 02:37:17;;;;;;;5.63;4.90;;;;;;;16.56;100.00;98065.56;5189443;22;20633;-91
2022/10/16 02:39:21;;;;;;;7.23;4.80;;;;;;;16.57;100.00;98072.50;5188811;22;20621;-92
2022/10/16 02:41:25;;;;;;;6.87;4.43;;;;;;;16.58;100.00;98068.06;5213642;22;20605;-92
2022/10/16 02:43:29;;;;;;;10.60;5.00;;;;;;;16.58;100.00;98070.69;5215058;22;21204;-92
2022/10/16 02:45:33;;;;;;;6.90;4.63;;;;;;;16.56;100.00;98073.47;5214624;22;20900;-91
2022/10/16 02:47:36;;;;;;;5.50;4.70;;;;;;;16.55;100.00;98077.09;5214206;22;20722;-92
2022/10/16 02:49:41;;;;;;;5.47;4.57;;;;;;;16.56;100.00;98064.75;5189708;22;20582;-92
2022/10/16 02:51:46;;;;;;;6.70;4.63;;;;;;;16.57;100.00;98071.69;5214636;22;20587;-92
2022/10/16 02:53:49;;;;;;;7.63;5.00;;;;;;;16.57;100.00;98067.25;5213195;22;20579;-93
2022/10/16 02:55:53;;;;;;;5.70;4.30;;;;;;;16.55;100.00;98069.19;5239977;22;20593;-92
2022/10/16 02:57:56;;;;;;;7.07;4.60;;;;;;;16.57;100.00;98067.25;5213968;22;20587;-91
2022/10/16 03:00:00;;;;;;;6.90;4.80;;;;;;;16.57;100.00;98064.59;5213599;22;20607;-91
2022/10/16 03:02:04;;;;;;;9.50;4.90;;;;;;;16.56;100.00;98057.66;5187703;22;20682;-92
2022/10/16 03:04:07;;;;;;;6.10;4.70;;;;;;;16.56;100.00;98060.31;5188001;22;20704;-92
2022/10/16 03:06:12;;;;;;;5.70;4.77;;;;;;;16.56;100.00;98054.22;5241037;22;20655;-93
2022/10/16 03:08:23;;;;;;;6.60;4.60;;;;;;;16.57;100.00;98066.41;5214459;22;21164;-93
2022/10/16 03:10:26;;;;;;;6.23;4.80;;;;;;;16.55;100.00;98071.84;5214330;22;20568;-92
2022/10/16 03:12:29;;;;;;;8.37;4.47;;;;;;;16.56;100.00;98059.47;5214837;22;20573;-92
2022/10/16 03:14:32;;;;;;;5.27;4.40;;;;;;;16.57;100.00;98061.16;5212817;22;20601;-92
2022/10/16 03:16:35;;;;;;;6.50;4.83;;;;;;;16.56;100.00;98064.75;5214099;22;20672;-92
2022/10/16 03:18:38;;;;;;;5.90;4.63;;;;;;;16.56;100.00;98076.09;5213683;22;20582;-92
2022/10/16 03:20:43;;;;;;;6.60;4.20;;;;;;;16.56;100.00;98070.84;5213860;22;20721;-93
2022/10/16 03:22:46;;;;;;;5.83;4.40;;;;;;;16.55;100.00;98069.19;5214540;22;20582;-92
2022/10/16 03:24:50;;;;;;;7.30;4.50;;;;;;;16.55;100.00;98074.47;5213809;22;20582;-91
2022/10/16 03:26:53;;;;;;;7.63;4.60;;;;;;;16.54;100.00;98078.06;5214793;22;20577;-92
2022/10/16 03:28:56;;;;;;;4.90;4.40;;;;;;;16.52;100.00;98080.00;5213384;22;20597;-92
2022/10/16 03:30:59;;;;;;;10.13;4.30;;;;;;;16.48;100.00;98074.31;5214671;22;20550;-92
2022/10/16 03:33:02;;;;;;;4.50;4.10;;;;;;;16.47;100.00;98068.22;5214342;22;21120;-91
2022/10/16 03:35:06;;;;;;;18.33;5.77;;;;;;;16.49;100.00;98073.34;5241102;22;20948;-92
2022/10/16 03:37:09;;;;;;;10.77;4.30;;;;;;;16.50;100.00;98069.75;5213396;22;21194;-92
2022/10/16 03:39:12;;;;;;;7.77;4.27;;;;;;;16.48;100.00;98071.69;5212487;22;20915;-92
2022/10/16 03:41:17;;;;;;;10.33;4.87;;;;;;;16.48;100.00;98066.41;5213622;22;20639;-92
2022/10/16 03:43:20;;;;;;;6.33;4.70;;;;;;;16.47;100.00;98070.03;5188277;22;20622;-92
2022/10/16 03:45:23;;;;;;;7.03;4.47;;;;;;;16.46;100.00;98073.63;5212076;22;20596;-93
2022/10/16 03:47:26;;;;;;;7.50;4.43;;;;;;;16.45;100.00;98079.88;5213971;22;21154;-92
2022/10/16 03:49:30;;;;;;;7.10;4.40;;;;;;;16.43;100.00;98081.81;5213267;22;20622;-92
2022/10/16 03:51:33;;;;;;;5.83;4.27;;;;;;;16.41;100.00;98079.31;5212933;22;20935;-92
2022/10/16 03:53:36;;;;;;;9.80;5.20;;;;;;;16.40;100.00;98082.09;5213313;22;20577;-91
2022/10/16 03:55:39;;;;;;;5.07;4.57;;;;;;;16.37;100.00;98083.19;5213870;22;20631;-91
2022/10/16 03:57:44;;;;;;;6.30;4.87;;;;;;;16.37;100.00;98082.38;5213042;22;21112;-92
2022/10/16 03:59:47;;;;;;;7.63;5.33;;;;;;;16.35;100.00;98077.25;5188987;22;20590;-91
2022/10/16 04:01:50;;;;;;;7.83;4.60;;;;;;;16.34;100.00;98075.63;5212396;22;20980;-93
2022/10/16 04:03:53;;;;;;;4.93;4.10;;;;;;;16.32;100.00;98076.72;5187515;22;21226;-92
2022/10/16 04:05:56;;;;;;;7.17;4.50;;;;;;;16.33;100.00;98081.03;5212669;22;20581;-92
2022/10/16 04:07:59;;;;;;;9.57;5.20;;;;;;;16.33;100.00;98073.13;5189217;22;20607;-92
2022/10/16 04:10:02;;;;;;;8.07;4.93;;;;;;;16.32;100.00;98076.72;5214520;22;20602;-91
2022/10/16 04:12:05;;;;;;;5.50;4.70;;;;;;;16.30;100.00;98076.84;5238852;22;20581;-92
2022/10/16 04:14:10;;;;;;;6.90;5.10;;;;;;;16.31;100.00;98083.78;5215118;22;20574;-93
2022/10/16 04:16:13;;;;;;;7.00;4.77;;;;;;;16.33;100.00;98079.22;5239927;22;20560;-92
2022/10/16 04:18:16;;;;;;;8.03;4.30;;;;;;;16.32;100.00;98076.72;5240190;22;20924;-92
2022/10/16 04:20:19;;;;;;;5.47;4.53;;;;;;;16.32;100.00;98076.72;5239651;22;21187;-93
2022/10/16 04:22:22;;;;;;;6.63;4.40;;;;;;;16.32;100.00;98085.44;5214319;22;20573;-91
2022/10/16 04:24:25;;;;;;;5.83;4.83;;;;;;;16.31;100.00;98085.56;5214576;22;20562;-93
2022/10/16 04:26:28;;;;;;;5.83;4.07;;;;;;;16.31;100.00;98093.47;5213886;22;20582;-93
2022/10/16 04:28:31;;;;;;;5.37;4.60;;;;;;;16.30;100.00;98094.47;5214354;22;20620;-92
2022/10/16 04:30:38;;;;;;;5.77;4.60;;;;;;;16.28;100.00;98094.59;5214121;22;20569;-92
2022/10/16 04:32:41;;;;;;;6.47;3.83;;;;;;;16.28;100.00;98097.22;5188816;22;20582;-92
2022/10/16 04:34:44;;;;;;;7.60;4.57;;;;;;;16.26;100.00;98107.03;5213932;22;20586;-92
2022/10/16 04:36:48;;;;;;;6.40;4.13;;;;;;;16.25;100.00;98088.75;5213677;22;20569;-91
2022/10/16 04:38:51;;;;;;;10.33;4.70;;;;;;;16.25;100.00;98099.28;5239462;22;20584;-92
2022/10/16 04:40:54;;;;;;;5.10;3.83;;;;;;;16.23;100.00;98093.34;5212545;22;21383;-92
2022/10/16 04:42:57;;;;;;;4.87;4.30;;;;;;;16.22;100.00;98091.66;5213465;22;20581;-93
2022/10/16 04:45:00;;;;;;;7.33;4.20;;;;;;;16.21;100.00;98096.09;5240824;22;20582;-91
2022/10/16 04:47:05;;;;;;;5.37;4.27;;;;;;;16.21;100.00;98095.25;5212396;22;21145;-91
2022/10/16 04:49:08;;;;;;;6.43;4.40;;;;;;;16.20;100.00;98093.59;5211093;22;20608;-91
2022/10/16 04:51:11;;;;;;;9.40;4.50;;;;;;;16.20;100.00;98106.75;5212861;22;21116;-92
2022/10/16 04:53:14;;;;;;;6.80;4.60;;;;;;;16.20;100.00;98106.75;5213205;22;20581;-91
2022/10/16 04:55:17;;;;;;;15.70;5.73;;;;;;;16.20;100.00;98114.63;5213452;22;20638;-91
2022/10/16 04:57:20;;;;;;;13.20;5.23;;;;;;;16.20;100.00;98115.47;5213072;22;20557;-92
2022/10/16 04:59:24;;;;;;;38.80;6.40;;;;;;;16.19;100.00;98116.47;5212721;22;20636;-92
2022/10/16 05:01:27;;;;;;;16.70;5.37;;;;;;;16.18;100.00;98116.59;5211924;22;20627;-92
2022/10/16 05:03:31;;;;;;;12.33;5.70;;;;;;;16.18;100.00;98109.50;5212271;22;20670;-92
2022/10/16 05:05:34;;;;;;;23.33;6.20;;;;;;;16.16;100.00;98108.84;5212855;22;20576;-92
2022/10/16 05:07:38;;;;;;;23.00;5.83;;;;;;;16.14;100.00;98116.00;5212317;22;21063;-91
2022/10/16 05:09:41;;;;;;;27.83;4.90;;;;;;;16.13;100.00;98119.63;5213437;22;20617;-92
2022/10/16 05:11:44;;;;;;;8.07;5.50;;;;;;;16.14;100.00;98126.53;5211704;22;20566;-92
2022/10/16 05:13:47;;;;;;;14.13;5.47;;;;;;;16.13;100.00;98127.53;5238455;22;20573;-91
2022/10/16 05:15:55;;;;;;;25.73;7.20;;;;;;;16.12;100.00;98132.94;5187216;22;20572;-91
2022/10/16 05:17:58;;;;;;;9.90;5.33;;;;;;;16.12;100.00;98130.31;5212380;22;20617;-90
2022/10/16 05:20:03;;;;;;;5.70;4.30;;;;;;;16.11;100.00;98131.25;5213236;22;20584;-91
2022/10/16 05:22:06;;;;;;;9.10;5.80;;;;;;;16.10;100.00;98129.59;5211595;22;20639;-91
2022/10/16 05:24:09;;;;;;;6.20;4.77;;;;;;;16.10;100.00;98135.69;5212620;22;20581;-92
2022/10/16 05:26:12;;;;;;;6.97;5.00;;;;;;;16.10;100.00;98134.84;5213389;22;20570;-91
2022/10/16 05:28:15;;;;;;;12.17;5.00;;;;;;;16.09;100.00;98127.94;5240209;22;21194;-91
2022/10/16 05:30:18;;;;;;;5.23;4.70;;;;;;;16.09;100.00;98122.69;5212682;22;20584;-91
2022/10/16 05:32:21;;;;;;;5.00;4.13;;;;;;;16.08;100.00;98121.00;5213607;22;20611;-91
2022/10/16 05:34:24;;;;;;;5.30;4.20;;;;;;;16.07;100.00;98114.06;5214144;22;20589;-91
2022/10/16 05:36:29;;;;;;;6.97;4.27;;;;;;;16.07;100.00;98124.59;5215305;22;20550;-92
2022/10/16 05:38:32;;;;;;;5.27;4.30;;;;;;;16.07;100.00;98116.69;5214038;22;20585;-92
2022/10/16 05:40:35;;;;;;;8.23;4.60;;;;;;;16.07;100.00;98129.84;5214535;22;20694;-92
2022/10/16 05:42:38;;;;;;;12.10;4.83;;;;;;;16.06;100.00;98128.22;5214625;22;20613;-92
2022/10/16 05:44:41;;;;;;;7.40;4.27;;;;;;;16.06;100.00;98134.31;5215195;22;20667;-92
2022/10/16 05:46:47;;;;;;;5.37;4.30;;;;;;;16.07;100.00;98129.84;5213950;22;20581;-92
2022/10/16 05:48:52;;;;;;;4.30;3.90;;;;;;;16.06;100.00;98126.41;5214538;22;20596;-92
2022/10/16 05:50:59;;;;;;;4.63;3.80;;;;;;;16.08;100.00;98132.34;5215059;22;20623;-92
2022/10/16 05:53:04;;;;;;;6.33;4.30;;;;;;;16.06;100.00;98128.22;5214076;22;20601;-92
2022/10/16 05:55:07;;;;;;;8.23;4.60;;;;;;;16.06;100.00;98136.94;5187675;22;20574;-92
2022/10/16 05:57:11;;;;;;;11.60;5.53;;;;;;;16.06;100.00;98149.28;5215488;22;20585;-93
2022/10/16 05:59:14;;;;;;;15.47;4.80;;;;;;;16.06;100.00;98147.47;5214460;22;20631;-92
2022/10/16 06:01:20;;;;;;;6.73;4.93;;;;;;;16.06;100.00;98144.81;5214978;22;20576;-92
2022/10/16 06:03:23;;;;;;;9.93;4.93;;;;;;;16.06;100.00;98144.00;5215791;22;20651;-93
2022/10/16 06:05:27;;;;;;;11.53;5.40;;;;;;;16.07;100.00;98140.38;5190778;22;20551;-92
2022/10/16 06:07:30;;;;;;;14.87;5.00;;;;;;;16.06;100.00;98149.28;5216323;22;20616;-91
2022/10/16 06:09:34;;;;;;;27.13;6.70;;;;;;;16.08;100.00;98152.59;5215524;22;20611;-92
2022/10/16 06:11:37;;;;;;;7.70;4.40;;;;;;;16.08;100.00;98156.03;5215663;22;20576;-91
2022/10/16 06:13:42;;;;;;;5.70;4.50;;;;;;;16.07;100.00;98157.03;5214524;22;20578;-91
2022/10/16 06:15:45;;;;;;;12.67;4.67;;;;;;;16.10;100.00;98166.44;5215088;22;20578;-92
2022/10/16 06:17:48;;;;;;;6.23;4.30;;;;;;;16.09;100.00;98154.25;5214868;22;20585;-92
2022/10/16 06:19:51;;;;;;;9.13;4.80;;;;;;;16.11;100.00;98154.94;5216018;22;20626;-93
2022/10/16 06:21:54;;;;;;;8.07;4.00;;;;;;;16.09;100.00;98162.16;5214427;22;20582;-92
2022/10/16 06:23:57;;;;;;;6.30;4.20;;;;;;;16.11;100.00;98168.91;5240157;22;20585;-92
2022/10/16 06:26:08;;;;;;;4.70;4.13;;;;;;;16.11;100.00;98170.72;5243201;22;20634;-92
2022/10/16 06:28:11;;;;;;;5.10;3.83;;;;;;;16.12;100.00;98175.03;5215038;22;20573;-91
2022/10/16 06:30:14;;;;;;;6.30;4.20;;;;;;;16.14;100.00;98173.09;5214474;22;20609;-91
2022/10/16 06:32:17;;;;;;;6.53;4.10;;;;;;;16.15;100.00;98172.13;5211530;22;20577;-92
2022/10/16 06:34:20;;;;;;;6.33;4.37;;;;;;;16.16;100.00;98172.00;5213376;22;20688;-93
2022/10/16 06:36:24;;;;;;;12.67;5.90;;;;;;;16.17;100.00;98178.09;5211342;22;20630;-91
2022/10/16 06:38:27;;;;;;;7.87;5.67;;;;;;;16.18;100.00;98179.75;5210952;22;20641;-92
2022/10/16 06:40:31;;;;;;;6.40;5.30;;;;;;;16.20;100.00;98181.25;5212643;22;21150;-91
2022/10/16 06:42:35;;;;;;;20.83;8.80;;;;;;;16.22;100.00;98176.75;5213234;22;20584;-91
2022/10/16 06:44:38;;;;;;;8.67;6.60;;;;;;;16.23;100.00;98180.19;5213913;22;20637;-91
2022/10/16 06:46:41;;;;;;;11.40;6.27;;;;;;;16.23;100.00;98173.13;5213518;22;20638;-92
2022/10/16 06:48:44;;;;;;;9.10;5.73;;;;;;;16.25;100.00;98175.63;5210790;22;20623;-92
2022/10/16 06:50:56;;;;;;;6.20;5.37;;;;;;;16.27;100.00;98178.97;5212033;22;21060;-91
2022/10/16 06:53:00;;;;;;;6.57;5.63;;;;;;;16.30;100.00;98182.16;5214127;22;20575;-92
2022/10/16 06:55:04;;;;;;;6.67;5.20;;;;;;;16.34;100.00;98183.56;5187509;22;20616;-91
2022/10/16 06:57:07;;;;;;;13.10;5.90;;;;;;;16.38;100.00;98194.63;5214796;22;20581;-93
2022/10/16 06:59:11;;;;;;;6.70;5.80;;;;;;;16.40;100.00;98190.03;5187797;22;20590;-92
2022/10/16 07:01:18;;;;;;;5.77;5.17;;;;;;;16.44;100.00;98201.97;5210994;22;20583;-93
2022/10/16 07:03:21;;;;;;;8.30;7.03;;;;;;;16.46;100.00;98205.28;5240089;22;20913;-92
2022/10/16 07:05:24;;;;;;;6.37;5.60;;;;;;;16.49;100.00;98203.19;5212965;22;20681;-92
2022/10/16 07:07:28;;;;;;;8.03;5.77;;;;;;;16.50;100.00;98218.88;5187783;22;21097;-93
2022/10/16 07:09:31;;;;;;;8.57;5.63;;;;;;;16.54;100.00;98233.44;5187434;22;20613;-92
2022/10/16 07:11:34;;;;;;;6.80;5.40;;;;;;;16.56;100.00;98231.47;5239321;22;20583;-90
2022/10/16 07:13:38;;;;;;;10.10;4.93;;;;;;;16.56;100.00;98234.13;5187671;22;20649;-91
2022/10/16 07:15:43;;;;;;;6.67;4.27;;;;;;;16.55;100.00;98237.75;5209650;22;21278;-92
2022/10/16 07:17:46;;;;;;;6.93;4.33;;;;;;;16.54;100.00;98230.81;5240563;22;20556;-91
2022/10/16 07:19:49;;;;;;;5.10;4.07;;;;;;;16.56;100.00;98236.75;5214690;22;20631;-92
2022/10/16 07:21:52;;;;;;;6.60;4.00;;;;;;;16.60;100.00;98240.78;5213183;22;20814;-91
2022/10/16 07:23:57;;;;;;;6.93;3.87;;;;;;;16.63;100.00;98243.16;5213060;22;20581;-92
2022/10/16 07:26:00;;;;;;;7.27;4.10;;;;;;;16.71;100.00;98242.47;5213067;22;20631;-92
2022/10/16 07:28:03;;;;;;;4.40;3.70;;;;;;;16.76;100.00;98245.50;5212999;22;20571;-92
2022/10/16 07:30:08;;;;;;;12.07;4.30;;;;;;;16.82;100.00;98251.03;5239714;22;20613;-92
2022/10/16 07:32:12;;;;;;;5.73;4.00;;;;;;;16.85;100.00;98249.94;5214003;22;20643;-93
2022/10/16 07:34:17;;;;;;;4.77;3.80;;;;;;;16.91;100.00;98265.19;5212521;22;20593;-93
2022/10/16 07:36:21;;;;;;;5.67;4.00;;;;;;;16.93;100.00;98257.97;5213734;22;20660;-93
2022/10/16 07:38:24;;;;;;;6.20;3.70;;;;;;;16.92;100.00;98251.06;5188079;22;20581;-92
2022/10/16 07:40:27;;;;;;;6.97;4.50;;;;;;;16.93;100.00;98256.19;5213401;22;20585;-93
2022/10/16 07:42:30;;;;;;;4.17;3.53;;;;;;;16.93;100.00;98261.47;5213087;22;20682;-91
2022/10/16 07:44:33;;;;;;;5.07;3.90;;;;;;;16.93;100.00;98263.25;5239842;22;20550;-92
2022/10/16 07:46:37;;;;;;;4.83;3.83;;;;;;;16.96;100.00;98270.88;5211735;22;20588;-91
2022/10/16 07:48:45;;;;;;;4.47;3.83;;;;;;;16.95;100.00;98274.50;5212934;22;20579;-93
2022/10/16 07:50:48;;;;;;;5.63;4.10;;;;;;;16.95;100.00;98271.84;5212579;22;20594;-92
2022/10/16 07:52:51;;;;;;;4.80;4.30;;;;;;;16.92;100.00;98282.69;5213057;22;20575;-92
2022/10/16 07:54:54;;;;;;;5.00;4.50;;;;;;;16.90;100.00;98274.91;5214380;22;20569;-92
2022/10/16 07:57:03;;;;;;;7.20;4.67;;;;;;;16.91;100.00;98281.00;5213281;22;20581;-91
2022/10/16 07:59:06;;;;;;;6.23;4.70;;;;;;;16.89;100.00;98282.94;5241288;22;20573;-91
2022/10/16 08:01:11;;;;;;;7.07;4.47;;;;;;;16.86;100.00;98284.06;5213398;22;21136;-93
2022/10/16 08:03:14;;;;;;;11.70;4.23;;;;;;;16.83;100.00;98276.41;5212592;22;20612;-91
2022/10/16 08:05:19;;;;;;;4.27;3.87;;;;;;;16.80;100.00;98284.59;5213899;22;20583;-90
2022/10/16 08:07:22;;;;;;;6.17;3.83;;;;;;;16.81;100.00;98283.66;5212960;22;20720;-90
2022/10/16 08:09:28;;;;;;;6.00;4.50;;;;;;;16.84;100.00;98278.09;5214557;22;20629;-93
2022/10/16 08:11:34;;;;;;;8.20;6.80;;;;;;;16.86;100.00;98284.06;5188605;22;20610;-90
2022/10/16 08:13:38;;;;;;;7.00;4.70;;;;;;;16.89;100.00;98294.31;5213306;22;20593;-90
2022/10/16 08:15:41;;;;;;;10.80;6.07;;;;;;;16.91;100.00;98286.28;5214258;22;20561;-91
2022/10/16 08:17:44;;;;;;;5.20;4.03;;;;;;;16.97;100.00;98291.81;5212506;22;20908;-92
2022/10/16 08:19:48;;;;;;;7.00;4.70;;;;;;;17.04;100.00;98292.94;5188143;22;21134;-90
2022/10/16 08:21:52;;;;;;;10.93;4.50;;;;;;;17.13;100.00;98292.09;5213862;22;20580;-91
2022/10/16 08:23:55;;;;;;;9.17;6.90;;;;;;;17.19;100.00;98289.72;5211243;22;21136;-92
2022/10/16 08:26:04;;;;;;;9.17;8.27;;;;;;;17.27;100.00;98296.97;5237079;22;21111;-92
2022/10/16 08:28:08;;;;;;;8.90;7.97;;;;;;;17.37;100.00;98305.72;5213402;22;20585;-88
2022/10/16 08:30:12;;;;;;;6.93;6.33;;;;;;;17.46;100.00;98303.88;5212212;22;20656;-89
2022/10/16 08:32:15;;;;;;;7.70;6.87;;;;;;;17.54;100.00;98306.63;5213621;22;20581;-90
2022/10/16 08:34:18;;;;;;;8.80;8.00;;;;;;;17.70;100.00;98309.50;5186372;22;20688;-90
2022/10/16 08:36:22;;;;;;;10.37;9.37;;;;;;;17.95;100.00;98314.13;5212117;22;20578;-90
2022/10/16 08:38:27;;;;;;;6.60;4.80;;;;;;;18.02;100.00;98309.94;5211966;22;20567;-89
2022/10/16 08:40:32;;;;;;;7.47;6.57;;;;;;;18.13;100.00;98312.44;5210955;22;20911;-91
2022/10/16 08:42:47;;;;;;;6.03;4.10;;;;;;;18.27;100.00;98307.50;5211913;22;20555;-91
2022/10/16 08:45:22;;;;;;;5.63;4.60;;;;;;;18.36;100.00;98314.56;5210742;22;20584;-92
2022/10/16 08:47:28;;;;;;;6.30;5.37;;;;;;;18.40;100.00;98320.38;5211684;22;20615;-90
2022/10/16 08:49:32;;;;;;;9.50;5.63;;;;;;;18.44;100.00;98327.84;5236718;22;21117;-91
2022/10/16 08:51:37;;;;;;;7.10;5.63;;;;;;;18.51;100.00;98329.75;5213776;22;20610;-92
2022/10/16 08:53:50;;;;;;;4.77;4.27;;;;;;;18.71;100.00;98336.59;5188266;22;20587;-91
2022/10/16 08:55:54;;;;;;;5.93;4.13;;;;;;;18.77;100.00;98333.34;5240480;22;20592;-91
2022/10/16 08:57:58;;;;;;;5.00;4.50;;;;;;;18.81;100.00;98344.44;5213909;22;21289;-93
2022/10/16 09:00:06;;;;;;;9.43;5.80;;;;;;;18.88;100.00;98341.91;5187846;22;20603;-91
2022/10/16 09:02:25;;;;;;;6.23;4.80;;;;;;;18.99;100.00;98340.88;5214031;22;20607;-91
2022/10/16 09:04:49;;;;;;;7.53;4.33;;;;;;;18.94;100.00;98333.38;5213626;22;20602;-92
2022/10/16 09:07:02;;;;;;;7.97;4.70;;;;;;;18.97;100.00;98333.09;5213547;22;20587;-90
2022/10/16 09:09:21;;;;;;;8.90;5.03;;;;;;;18.96;100.00;98330.59;5238596;22;20582;-91
2022/10/16 09:11:34;;;;;;;6.63;4.10;;;;;;;18.94;100.00;98337.81;5187041;22;20604;-90
2022/10/16 09:13:45;;;;;;;4.70;4.00;;;;;;;18.91;100.00;98331.03;5239030;22;20628;-91
2022/10/16 09:15:54;;;;;;;7.47;4.55;;;;;;;18.94;100.00;98321.97;5237459;22;20688;-92
2022/10/16 09:18:02;;;;;;;11.13;4.03;;;;;;;18.99;100.00;98322.34;5211760;22;20168;-93
2022/10/16 09:20:19;;;;;;;6.73;4.90;;;;;;;19.02;100.00;98328.19;5213719;22;20547;-94
2022/10/16 09:22:26;;;;;;;5.40;4.90;;;;;;;19.07;100.00;98339.16;5240800;22;21049;-91
2022/10/16 09:24:31;;;;;;;4.50;3.83;;;;;;;19.09;100.00;98342.50;5213715;22;21106;-93
2022/10/16 09:26:34;;;;;;;5.97;3.97;;;;;;;19.10;100.00;98343.31;5187798;22;20582;-92
2022/10/16 09:28:37;;;;;;;5.97;4.10;;;;;;;19.07;100.00;98346.25;5187576;22;20569;-91
2022/10/16 09:30:40;;;;;;;5.80;3.93;;;;;;;18.99;100.00;98346.16;5188492;22;20954;-89
2022/10/16 09:32:45;;;;;;;6.30;3.77;;;;;;;18.93;100.00;98341.47;5213548;22;20591;-93
2022/10/16 09:34:51;;;;;;;5.60;4.33;;;;;;;18.93;100.00;98352.88;5240950;22;20682;-91
2022/10/16 09:36:55;;;;;;;5.00;4.37;;;;;;;19.00;100.00;98347.78;5213723;22;20579;-91
2022/10/16 09:39:05;;;;;;;6.87;5.20;;;;;;;19.09;100.00;98352.22;5211173;22;20641;-91
2022/10/16 09:41:18;;;;;;;6.10;5.33;;;;;;;19.15;100.00;98348.97;5212044;22;20568;-89